createdAt,value
2018-10-07T00:06:32.861Z,0.00
2018-10-07T00:16:18.179Z,0.00
2018-10-07T00:20:52.373Z,0.00
2018-10-07T00:36:23.198Z,0.00
2018-10-07T01:08:07.930Z,0.00
2018-10-07T01:09:07.756Z,0.00
2018-10-07T01:14:25.933Z,0.00
2018-10-07T01:23:32.660Z,0.00
2018-10-07T01:27:45.280Z,0.00
2018-10-07T01:33:45.489Z,0.00
2018-10-07T01:34:45.176Z,0.00
2018-10-07T01:44:09.474Z,0.00
2018-10-07T02:02:47.577Z,0.00
2018-10-07T02:05:59.200Z,0.00
2018-10-07T02:08:42.474Z,0.00
2018-10-07T02:14:25.106Z,0.00
2018-10-07T02:34:06.644Z,0.00
2018-10-07T02:36:51.985Z,0.00
2018-10-07T02:37:51.649Z,0.00
2018-10-07T02:38:51.788Z,0.00
2018-10-07T02:39:51.600Z,0.00
2018-10-07T02:47:22.014Z,0.00
2018-10-07T03:00:28.741Z,0.00
2018-10-07T03:03:13.713Z,0.00
2018-10-07T03:13:47.149Z,0.00
2018-10-07T03:28:47.320Z,0.00
2018-10-07T03:32:30.854Z,0.00
2018-10-07T03:43:52.454Z,0.00
2018-10-07T03:48:58.348Z,0.00
2018-10-07T03:53:36.269Z,0.00
2018-10-07T03:54:36.049Z,0.00
2018-10-07T03:56:58.435Z,0.00
2018-10-07T03:57:58.261Z,0.00
2018-10-07T03:59:07.419Z,0.00
2018-10-07T03:59:58.171Z,0.00
2018-10-07T04:00:58.182Z,0.00
2018-10-07T04:02:05.098Z,0.00
2018-10-07T04:02:58.063Z,0.00
2018-10-07T04:03:58.065Z,0.00
2018-10-07T04:04:58.038Z,0.00
2018-10-07T04:05:58.028Z,0.00
2018-10-07T04:06:58.016Z,0.00
2018-10-07T04:07:58.008Z,0.00
2018-10-07T04:08:58.005Z,0.00
2018-10-07T04:09:57.981Z,0.00
2018-10-07T04:10:57.971Z,0.00
2018-10-07T04:11:57.963Z,0.00
2018-10-07T04:12:57.953Z,0.00
2018-10-07T04:13:57.955Z,0.00
2018-10-07T04:14:57.945Z,0.00
2018-10-07T04:15:57.918Z,0.00
2018-10-07T04:16:57.908Z,0.00
2018-10-07T04:17:57.900Z,0.00
2018-10-07T04:18:57.896Z,0.00
2018-10-07T04:19:57.888Z,0.00
2018-10-07T04:20:57.861Z,0.00
2018-10-07T04:21:57.855Z,0.00
2018-10-07T04:22:57.841Z,0.00
2018-10-07T04:23:57.829Z,0.00
2018-10-07T04:24:57.833Z,0.00
2018-10-07T04:25:57.806Z,0.00
2018-10-07T04:26:57.795Z,0.00
2018-10-07T04:27:57.783Z,0.00
2018-10-07T04:28:57.771Z,0.00
2018-10-07T04:29:57.772Z,0.00
2018-10-07T04:30:57.748Z,0.00
2018-10-07T04:31:57.737Z,0.00
2018-10-07T04:32:57.725Z,0.00
2018-10-07T04:33:57.715Z,0.00
2018-10-07T04:34:57.712Z,0.00
2018-10-07T04:35:57.689Z,0.00
2018-10-07T04:36:57.676Z,0.00
2018-10-07T04:37:57.669Z,0.00
2018-10-07T04:38:57.661Z,0.00
2018-10-07T04:39:57.730Z,0.00
2018-10-07T04:40:57.637Z,0.00
2018-10-07T04:41:57.634Z,0.00
2018-10-07T04:42:57.610Z,0.00
2018-10-07T04:43:57.602Z,0.00
2018-10-07T04:44:57.604Z,0.00
2018-10-07T04:45:57.574Z,0.00
2018-10-07T04:46:57.563Z,0.00
2018-10-07T04:47:57.557Z,0.00
2018-10-07T04:48:57.543Z,0.00
2018-10-07T04:49:57.546Z,0.00
2018-10-07T04:50:57.519Z,0.00
2018-10-07T04:51:57.506Z,0.00
2018-10-07T04:52:57.498Z,0.00
2018-10-07T04:53:57.507Z,0.00
2018-10-07T04:54:57.486Z,0.00
2018-10-07T04:55:57.462Z,0.00
2018-10-07T04:56:57.449Z,0.00
2018-10-07T04:57:57.438Z,0.00
2018-10-07T04:58:57.427Z,0.00
2018-10-07T04:59:57.427Z,0.00
2018-10-07T05:00:57.406Z,0.00
2018-10-07T05:01:57.393Z,0.00
2018-10-07T05:02:57.382Z,0.00
2018-10-07T05:03:57.375Z,4.00
2018-10-07T05:04:57.371Z,0.00
2018-10-07T05:05:57.344Z,8.00
2018-10-07T05:06:57.332Z,4.00
2018-10-07T05:07:57.321Z,8.00
2018-10-07T05:08:57.309Z,8.00
2018-10-07T05:09:57.319Z,12.00
2018-10-07T05:10:57.286Z,12.00
2018-10-07T05:11:57.321Z,12.00
2018-10-07T05:12:57.265Z,16.00
2018-10-07T05:13:57.253Z,16.00
2018-10-07T05:14:57.258Z,20.00
2018-10-07T05:15:57.232Z,24.00
2018-10-07T05:16:57.220Z,28.00
2018-10-07T05:17:57.208Z,28.00
2018-10-07T05:18:57.196Z,32.00
2018-10-07T05:19:57.197Z,40.00
2018-10-07T05:20:57.230Z,36.00
2018-10-07T05:21:57.162Z,48.00
2018-10-07T05:22:57.153Z,48.00
2018-10-07T05:23:57.142Z,56.00
2018-10-07T05:24:57.140Z,56.00
2018-10-07T05:25:57.119Z,68.00
2018-10-07T05:26:57.106Z,76.00
2018-10-07T05:27:57.094Z,72.00
2018-10-07T05:28:57.087Z,84.00
2018-10-07T05:29:57.084Z,92.00
2018-10-07T05:30:57.056Z,96.00
2018-10-07T05:31:57.046Z,96.00
2018-10-07T05:32:57.033Z,104.00
2018-10-07T05:33:57.022Z,108.00
2018-10-07T05:34:57.027Z,120.00
2018-10-07T05:35:57.000Z,128.00
2018-10-07T05:36:57.005Z,132.00
2018-10-07T05:37:56.977Z,140.00
2018-10-07T05:38:56.965Z,148.00
2018-10-07T05:39:56.966Z,152.00
2018-10-07T05:40:56.947Z,168.00
2018-10-07T05:41:56.932Z,176.00
2018-10-07T05:42:56.920Z,192.00
2018-10-07T05:43:56.909Z,204.00
2018-10-07T05:44:56.911Z,216.00
2018-10-07T05:45:56.887Z,240.00
2018-10-07T05:46:56.877Z,256.00
2018-10-07T05:47:56.854Z,280.00
2018-10-07T05:48:56.854Z,300.00
2018-10-07T05:49:56.849Z,324.00
2018-10-07T05:50:56.835Z,348.00
2018-10-07T05:51:56.815Z,376.00
2018-10-07T05:52:56.810Z,420.00
2018-10-07T05:53:56.797Z,436.00
2018-10-07T05:54:56.796Z,468.00
2018-10-07T05:55:56.771Z,492.00
2018-10-07T05:56:56.758Z,548.00
2018-10-07T05:57:56.750Z,592.00
2018-10-07T05:58:56.738Z,612.00
2018-10-07T05:59:56.738Z,632.00
2018-10-07T06:00:56.716Z,644.00
2018-10-07T06:01:56.803Z,660.00
2018-10-07T06:02:56.691Z,672.00
2018-10-07T06:03:56.680Z,688.00
2018-10-07T06:04:56.689Z,692.00
2018-10-07T06:05:56.671Z,720.00
2018-10-07T06:06:56.659Z,724.00
2018-10-07T06:07:56.638Z,708.00
2018-10-07T06:08:56.624Z,700.00
2018-10-07T06:09:56.624Z,692.00
2018-10-07T06:10:56.601Z,712.00
2018-10-07T06:11:56.594Z,736.00
2018-10-07T06:12:56.580Z,764.00
2018-10-07T06:13:56.562Z,768.00
2018-10-07T06:14:56.627Z,752.00
2018-10-07T06:15:56.540Z,732.00
2018-10-07T06:16:56.528Z,716.00
2018-10-07T06:17:56.516Z,740.00
2018-10-07T06:18:56.509Z,768.00
2018-10-07T06:19:56.510Z,792.00
2018-10-07T06:20:56.485Z,824.00
2018-10-07T06:21:56.471Z,852.00
2018-10-07T06:22:56.462Z,872.00
2018-10-07T06:23:56.456Z,912.00
2018-10-07T06:24:56.473Z,952.00
2018-10-07T06:25:56.426Z,988.00
2018-10-07T06:26:56.414Z,1032.00
2018-10-07T06:27:56.407Z,1072.00
2018-10-07T06:28:56.391Z,1128.00
2018-10-07T06:29:56.512Z,1176.00
2018-10-07T06:30:56.384Z,1208.00
2018-10-07T06:31:56.358Z,1240.00
2018-10-07T06:32:56.346Z,1280.00
2018-10-07T06:33:56.335Z,1352.00
2018-10-07T06:34:56.328Z,1432.00
2018-10-07T06:35:56.325Z,1460.00
2018-10-07T06:36:56.304Z,1424.00
2018-10-07T06:37:56.289Z,1356.00
2018-10-07T06:38:56.279Z,1304.00
2018-10-07T06:39:56.394Z,1312.00
2018-10-07T06:40:56.269Z,1472.00
2018-10-07T06:41:56.246Z,1632.00
2018-10-07T06:42:56.233Z,1468.00
2018-10-07T06:43:56.222Z,1344.00
2018-10-07T06:44:56.211Z,1168.00
2018-10-07T06:45:56.353Z,960.00
2018-10-07T06:46:56.189Z,840.00
2018-10-07T06:47:56.180Z,820.00
2018-10-07T06:48:56.165Z,832.00
2018-10-07T06:49:56.162Z,868.00
2018-10-07T06:50:56.155Z,884.00
2018-10-07T06:51:56.131Z,904.00
2018-10-07T06:52:56.121Z,932.00
2018-10-07T06:53:56.108Z,976.00
2018-10-07T06:54:56.100Z,964.00
2018-10-07T06:55:56.102Z,1000.00
2018-10-07T06:56:56.075Z,1044.00
2018-10-07T06:57:56.065Z,1060.00
2018-10-07T06:58:56.052Z,1100.00
2018-10-07T06:59:56.042Z,1168.00
2018-10-07T07:00:56.038Z,1188.00
2018-10-07T07:01:56.033Z,1148.00
2018-10-07T07:02:56.011Z,1128.00
2018-10-07T07:03:55.997Z,1156.00
2018-10-07T07:04:55.985Z,1172.00
2018-10-07T07:05:55.983Z,1144.00
2018-10-07T07:06:55.960Z,1152.00
2018-10-07T07:07:55.955Z,1200.00
2018-10-07T07:08:55.941Z,1220.00
2018-10-07T07:09:55.927Z,1324.00
2018-10-07T07:10:55.933Z,1444.00
2018-10-07T07:11:55.906Z,1588.00
2018-10-07T07:12:55.900Z,1740.00
2018-10-07T07:13:55.883Z,1848.00
2018-10-07T07:14:55.873Z,1876.00
2018-10-07T07:15:55.872Z,1872.00
2018-10-07T07:16:55.845Z,1792.00
2018-10-07T07:17:55.834Z,1772.00
2018-10-07T07:18:55.826Z,1776.00
2018-10-07T07:19:55.902Z,1840.00
2018-10-07T07:20:55.812Z,1916.00
2018-10-07T07:21:55.793Z,1952.00
2018-10-07T07:22:55.777Z,1968.00
2018-10-07T07:23:55.765Z,2012.00
2018-10-07T07:24:55.773Z,2088.00
2018-10-07T07:25:55.758Z,2136.00
2018-10-07T07:26:55.737Z,2176.00
2018-10-07T07:27:55.724Z,2220.00
2018-10-07T07:28:55.716Z,2256.00
2018-10-07T07:29:55.707Z,2308.00
2018-10-07T07:30:55.760Z,2384.00
2018-10-07T07:31:55.685Z,2456.00
2018-10-07T07:32:55.665Z,2524.00
2018-10-07T07:33:55.649Z,2548.00
2018-10-07T07:34:55.638Z,2576.00
2018-10-07T07:35:55.638Z,2596.00
2018-10-07T07:36:55.674Z,2612.00
2018-10-07T07:37:55.604Z,2632.00
2018-10-07T07:38:55.593Z,2656.00
2018-10-07T07:39:55.581Z,2640.00
2018-10-07T07:40:55.584Z,2612.00
2018-10-07T07:41:55.559Z,2608.00
2018-10-07T07:42:55.547Z,2592.00
2018-10-07T07:43:55.536Z,2588.00
2018-10-07T07:44:55.525Z,2608.00
2018-10-07T07:45:55.524Z,2632.00
2018-10-07T07:46:55.505Z,2672.00
2018-10-07T07:47:55.494Z,2728.00
2018-10-07T07:48:55.494Z,2784.00
2018-10-07T07:49:55.468Z,2796.00
2018-10-07T07:50:55.480Z,2804.00
2018-10-07T07:51:55.446Z,2804.00
2018-10-07T07:52:55.435Z,2788.00
2018-10-07T07:53:55.424Z,2780.00
2018-10-07T07:54:55.413Z,2772.00
2018-10-07T07:55:55.412Z,2796.00
2018-10-07T07:56:55.389Z,2864.00
2018-10-07T07:57:55.376Z,3012.00
2018-10-07T07:58:55.367Z,3112.00
2018-10-07T07:59:55.354Z,3000.00
2018-10-07T08:00:55.355Z,2880.00
2018-10-07T08:01:55.338Z,3004.00
2018-10-07T08:02:55.327Z,2924.00
2018-10-07T08:03:55.305Z,2384.00
2018-10-07T08:04:55.297Z,1724.00
2018-10-07T08:05:55.301Z,1796.00
2018-10-07T08:06:55.275Z,2272.00
2018-10-07T08:07:55.269Z,2908.00
2018-10-07T08:08:55.309Z,3280.00
2018-10-07T08:09:55.485Z,3332.00
2018-10-07T08:10:55.242Z,3492.00
2018-10-07T08:11:55.222Z,3620.00
2018-10-07T08:12:55.207Z,3536.00
2018-10-07T08:13:55.196Z,3632.00
2018-10-07T08:14:55.185Z,3628.00
2018-10-07T08:15:55.187Z,3972.00
2018-10-07T08:16:55.166Z,4740.00
2018-10-07T08:17:55.235Z,4940.00
2018-10-07T08:18:55.141Z,4620.00
2018-10-07T08:19:55.129Z,3912.00
2018-10-07T08:20:55.129Z,3484.00
2018-10-07T08:21:55.110Z,3148.00
2018-10-07T08:22:55.094Z,3084.00
2018-10-07T08:23:55.193Z,2816.00
2018-10-07T08:24:55.072Z,2164.00
2018-10-07T08:25:55.072Z,1876.00
2018-10-07T08:26:55.050Z,2096.00
2018-10-07T08:27:55.038Z,2500.00
2018-10-07T08:28:55.027Z,2764.00
2018-10-07T08:29:55.018Z,2912.00
2018-10-07T08:30:55.042Z,3076.00
2018-10-07T08:31:54.994Z,3484.00
2018-10-07T08:32:54.985Z,4028.00
2018-10-07T08:33:54.974Z,4412.00
2018-10-07T08:34:54.968Z,5300.00
2018-10-07T08:35:54.951Z,5000.00
2018-10-07T08:36:54.953Z,4192.00
2018-10-07T08:37:54.931Z,4972.00
2018-10-07T08:38:54.918Z,5156.00
2018-10-07T08:39:54.908Z,5128.00
2018-10-07T08:40:54.901Z,5344.00
2018-10-07T08:41:54.897Z,5852.00
2018-10-07T08:42:54.871Z,5908.00
2018-10-07T08:43:55.018Z,5316.00
2018-10-07T08:44:54.855Z,4984.00
2018-10-07T08:45:54.838Z,4828.00
2018-10-07T08:46:54.840Z,4128.00
2018-10-07T08:47:54.817Z,3512.00
2018-10-07T08:48:54.806Z,3592.00
2018-10-07T08:49:54.930Z,3892.00
2018-10-07T08:50:54.782Z,3528.00
2018-10-07T08:51:54.786Z,2996.00
2018-10-07T08:52:54.760Z,2716.00
2018-10-07T08:53:54.749Z,2536.00
2018-10-07T08:54:54.736Z,2372.00
2018-10-07T08:55:54.737Z,2276.00
2018-10-07T08:56:54.730Z,2084.00
2018-10-07T08:57:54.707Z,1936.00
2018-10-07T08:58:54.696Z,1748.00
2018-10-07T08:59:54.681Z,1676.00
2018-10-07T09:00:54.673Z,1612.00
2018-10-07T09:01:54.689Z,1564.00
2018-10-07T09:02:54.654Z,1636.00
2018-10-07T09:03:54.638Z,1780.00
2018-10-07T09:04:54.628Z,1804.00
2018-10-07T09:05:54.616Z,1892.00
2018-10-07T09:06:54.614Z,1976.00
2018-10-07T09:07:54.594Z,2076.00
2018-10-07T09:08:54.634Z,2156.00
2018-10-07T09:09:54.571Z,2180.00
2018-10-07T09:10:54.563Z,2132.00
2018-10-07T09:11:54.564Z,1932.00
2018-10-07T09:12:54.540Z,1744.00
2018-10-07T09:13:54.529Z,1644.00
2018-10-07T09:14:54.516Z,1532.00
2018-10-07T09:15:54.503Z,1448.00
2018-10-07T09:16:54.509Z,1368.00
2018-10-07T09:17:54.480Z,1340.00
2018-10-07T09:18:54.471Z,1324.00
2018-10-07T09:19:54.463Z,1364.00
2018-10-07T09:20:54.461Z,1380.00
2018-10-07T09:21:54.452Z,1316.00
2018-10-07T09:22:54.429Z,1144.00
2018-10-07T09:23:54.417Z,968.00
2018-10-07T09:24:54.410Z,808.00
2018-10-07T09:25:54.398Z,728.00
2018-10-07T09:26:54.467Z,748.00
2018-10-07T09:27:54.377Z,808.00
2018-10-07T09:28:54.361Z,836.00
2018-10-07T09:29:54.359Z,828.00
2018-10-07T09:30:54.339Z,792.00
2018-10-07T09:31:54.345Z,776.00
2018-10-07T09:32:54.376Z,780.00
2018-10-07T09:33:54.304Z,812.00
2018-10-07T09:34:54.292Z,872.00
2018-10-07T09:35:54.285Z,960.00
2018-10-07T09:36:54.379Z,1064.00
2018-10-07T09:37:54.267Z,1176.00
2018-10-07T09:38:54.248Z,1240.00
2018-10-07T09:39:54.317Z,1260.00
2018-10-07T09:40:54.233Z,1244.00
2018-10-07T09:41:54.229Z,1236.00
2018-10-07T09:42:54.212Z,1284.00
2018-10-07T09:43:54.195Z,1260.00
2018-10-07T09:44:54.189Z,1268.00
2018-10-07T09:45:54.177Z,1256.00
2018-10-07T09:46:54.174Z,1188.00
2018-10-07T09:47:54.761Z,1124.00
2018-10-07T09:48:54.138Z,1044.00
2018-10-07T09:49:54.129Z,1008.00
2018-10-07T09:50:54.118Z,968.00
2018-10-07T09:51:54.116Z,920.00
2018-10-07T09:52:54.093Z,868.00
2018-10-07T09:53:54.083Z,868.00
2018-10-07T09:54:54.070Z,932.00
2018-10-07T09:55:54.077Z,956.00
2018-10-07T09:56:54.069Z,940.00
2018-10-07T09:57:54.106Z,944.00
2018-10-07T09:58:54.028Z,948.00
2018-10-07T09:59:54.014Z,924.00
2018-10-07T10:00:54.011Z,872.00
2018-10-07T10:01:54.005Z,824.00
2018-10-07T10:02:53.985Z,776.00
2018-10-07T10:03:54.037Z,804.00
2018-10-07T10:04:53.961Z,804.00
2018-10-07T10:05:53.950Z,820.00
2018-10-07T10:06:53.978Z,792.00
2018-10-07T10:07:53.930Z,800.00
2018-10-07T10:08:53.917Z,816.00
2018-10-07T10:09:53.905Z,840.00
2018-10-07T10:10:53.953Z,844.00
2018-10-07T10:11:53.898Z,852.00
2018-10-07T10:12:53.872Z,860.00
2018-10-07T10:13:53.860Z,848.00
2018-10-07T10:14:53.849Z,812.00
2018-10-07T10:15:53.837Z,808.00
2018-10-07T10:16:53.839Z,772.00
2018-10-07T10:17:53.823Z,772.00
2018-10-07T10:18:53.805Z,776.00
2018-10-07T10:19:53.792Z,776.00
2018-10-07T10:20:53.788Z,772.00
2018-10-07T10:21:53.782Z,768.00
2018-10-07T10:22:53.763Z,760.00
2018-10-07T10:23:53.751Z,720.00
2018-10-07T10:24:53.740Z,692.00
2018-10-07T10:25:53.729Z,696.00
2018-10-07T10:26:53.888Z,696.00
2018-10-07T10:27:53.706Z,700.00
2018-10-07T10:28:53.695Z,712.00
2018-10-07T10:29:53.683Z,720.00
2018-10-07T10:30:53.672Z,724.00
2018-10-07T10:31:53.676Z,700.00
2018-10-07T10:32:53.653Z,688.00
2018-10-07T10:33:53.642Z,688.00
2018-10-07T10:34:53.622Z,728.00
2018-10-07T10:35:53.682Z,720.00
2018-10-07T10:36:53.742Z,676.00
2018-10-07T10:37:53.598Z,692.00
2018-10-07T10:38:53.582Z,720.00
2018-10-07T10:39:53.595Z,748.00
2018-10-07T10:40:53.711Z,756.00
2018-10-07T10:41:53.552Z,736.00
2018-10-07T10:42:53.548Z,684.00
2018-10-07T10:43:53.536Z,716.00
2018-10-07T10:44:53.533Z,752.00
2018-10-07T10:45:53.506Z,764.00
2018-10-07T10:46:53.496Z,768.00
2018-10-07T10:47:53.536Z,772.00
2018-10-07T10:48:53.473Z,800.00
2018-10-07T10:49:53.462Z,832.00
2018-10-07T10:50:53.446Z,820.00
2018-10-07T10:51:53.583Z,840.00
2018-10-07T10:52:53.443Z,868.00
2018-10-07T10:53:53.458Z,892.00
2018-10-07T10:54:53.389Z,948.00
2018-10-07T10:55:53.429Z,992.00
2018-10-07T10:56:53.372Z,1020.00
2018-10-07T10:57:53.378Z,1060.00
2018-10-07T10:58:53.360Z,1068.00
2018-10-07T10:59:53.357Z,1032.00
2018-10-07T11:00:53.399Z,1008.00
2018-10-07T11:01:53.323Z,948.00
2018-10-07T11:02:53.327Z,892.00
2018-10-07T11:03:53.307Z,868.00
2018-10-07T11:04:53.321Z,868.00
2018-10-07T11:05:53.286Z,852.00
2018-10-07T11:06:53.273Z,820.00
2018-10-07T11:07:53.273Z,800.00
2018-10-07T11:08:53.250Z,744.00
2018-10-07T11:09:53.239Z,688.00
2018-10-07T11:10:53.230Z,660.00
2018-10-07T11:11:53.226Z,668.00
2018-10-07T11:12:53.218Z,636.00
2018-10-07T11:13:53.264Z,624.00
2018-10-07T11:14:53.190Z,648.00
2018-10-07T11:15:53.260Z,660.00
2018-10-07T11:16:53.161Z,684.00
2018-10-07T11:17:53.162Z,692.00
2018-10-07T11:18:53.146Z,708.00
2018-10-07T11:19:53.133Z,744.00
2018-10-07T11:20:53.120Z,772.00
2018-10-07T11:21:53.112Z,780.00
2018-10-07T11:22:53.113Z,800.00
2018-10-07T11:23:53.088Z,840.00
2018-10-07T11:24:53.075Z,832.00
2018-10-07T11:25:53.063Z,836.00
2018-10-07T11:26:53.052Z,868.00
2018-10-07T11:27:53.055Z,868.00
2018-10-07T11:28:53.029Z,880.00
2018-10-07T11:29:53.017Z,892.00
2018-10-07T11:30:53.006Z,892.00
2018-10-07T11:31:53.000Z,916.00
2018-10-07T11:32:52.996Z,864.00
2018-10-07T11:33:52.983Z,872.00
2018-10-07T11:34:53.063Z,896.00
2018-10-07T11:35:52.950Z,820.00
2018-10-07T11:36:52.947Z,760.00
2018-10-07T11:37:52.940Z,756.00
2018-10-07T11:38:52.920Z,764.00
2018-10-07T11:39:52.908Z,780.00
2018-10-07T11:40:52.959Z,796.00
2018-10-07T11:41:52.888Z,844.00
2018-10-07T11:42:52.888Z,844.00
2018-10-07T11:43:52.863Z,860.00
2018-10-07T11:44:52.852Z,856.00
2018-10-07T11:45:52.842Z,868.00
2018-10-07T11:46:52.862Z,868.00
2018-10-07T11:47:52.830Z,868.00
2018-10-07T11:48:52.811Z,900.00
2018-10-07T11:49:52.795Z,900.00
2018-10-07T11:50:52.785Z,916.00
2018-10-07T11:51:52.773Z,948.00
2018-10-07T11:52:52.794Z,960.00
2018-10-07T11:53:52.752Z,956.00
2018-10-07T11:54:52.739Z,916.00
2018-10-07T11:55:52.727Z,884.00
2018-10-07T11:56:52.718Z,932.00
2018-10-07T11:57:52.718Z,968.00
2018-10-07T11:58:52.694Z,992.00
2018-10-07T11:59:52.687Z,992.00
2018-10-07T12:00:52.667Z,1028.00
2018-10-07T12:01:52.668Z,1136.00
2018-10-07T12:02:52.726Z,1232.00
2018-10-07T12:03:52.767Z,1260.00
2018-10-07T12:04:52.631Z,1240.00
2018-10-07T12:05:52.619Z,1236.00
2018-10-07T12:06:52.607Z,1340.00
2018-10-07T12:07:52.607Z,1280.00
2018-10-07T12:08:52.586Z,1096.00
2018-10-07T12:09:52.574Z,1016.00
2018-10-07T12:10:52.565Z,996.00
2018-10-07T12:11:52.538Z,1000.00
2018-10-07T12:12:52.551Z,980.00
2018-10-07T12:13:52.527Z,996.00
2018-10-07T12:14:52.518Z,1004.00
2018-10-07T12:15:52.510Z,984.00
2018-10-07T12:16:52.499Z,960.00
2018-10-07T12:17:52.498Z,952.00
2018-10-07T12:18:52.476Z,1012.00
2018-10-07T12:19:52.459Z,964.00
2018-10-07T12:20:52.453Z,916.00
2018-10-07T12:21:52.441Z,912.00
2018-10-07T12:22:52.443Z,992.00
2018-10-07T12:23:52.416Z,1012.00
2018-10-07T12:24:52.408Z,932.00
2018-10-07T12:25:52.398Z,876.00
2018-10-07T12:26:52.389Z,856.00
2018-10-07T12:27:52.386Z,832.00
2018-10-07T12:28:52.374Z,804.00
2018-10-07T12:29:52.353Z,824.00
2018-10-07T12:30:52.340Z,860.00
2018-10-07T12:31:52.329Z,876.00
2018-10-07T12:32:52.334Z,872.00
2018-10-07T12:33:52.306Z,876.00
2018-10-07T12:34:52.295Z,896.00
2018-10-07T12:35:52.284Z,888.00
2018-10-07T12:36:52.304Z,888.00
2018-10-07T12:37:52.273Z,896.00
2018-10-07T12:38:52.255Z,888.00
2018-10-07T12:39:52.243Z,836.00
2018-10-07T12:40:52.242Z,784.00
2018-10-07T12:41:52.220Z,772.00
2018-10-07T12:42:52.241Z,768.00
2018-10-07T12:43:52.197Z,804.00
2018-10-07T12:44:52.186Z,828.00
2018-10-07T12:45:52.176Z,848.00
2018-10-07T12:46:52.166Z,876.00
2018-10-07T12:47:52.155Z,876.00
2018-10-07T12:48:52.155Z,872.00
2018-10-07T12:49:52.134Z,860.00
2018-10-07T12:50:52.123Z,872.00
2018-10-07T12:51:52.108Z,856.00
2018-10-07T12:52:52.097Z,852.00
2018-10-07T12:53:52.135Z,856.00
2018-10-07T12:54:52.073Z,852.00
2018-10-07T12:55:52.063Z,816.00
2018-10-07T12:56:52.051Z,764.00
2018-10-07T12:57:52.045Z,676.00
2018-10-07T12:58:52.044Z,588.00
2018-10-07T12:59:52.025Z,512.00
2018-10-07T13:00:52.010Z,516.00
2018-10-07T13:01:52.086Z,552.00
2018-10-07T13:02:51.991Z,600.00
2018-10-07T13:03:52.082Z,636.00
2018-10-07T13:04:51.964Z,612.00
2018-10-07T13:05:51.954Z,616.00
2018-10-07T13:06:51.941Z,592.00
2018-10-07T13:07:51.970Z,564.00
2018-10-07T13:08:51.985Z,504.00
2018-10-07T13:09:51.908Z,476.00
2018-10-07T13:10:51.897Z,496.00
2018-10-07T13:11:51.887Z,488.00
2018-10-07T13:12:51.877Z,504.00
2018-10-07T13:13:51.874Z,488.00
2018-10-07T13:14:51.852Z,480.00
2018-10-07T13:15:51.839Z,452.00
2018-10-07T13:16:51.833Z,404.00
2018-10-07T13:17:51.818Z,360.00
2018-10-07T13:18:51.826Z,344.00
2018-10-07T13:19:51.794Z,340.00
2018-10-07T13:20:51.791Z,308.00
2018-10-07T13:21:51.784Z,300.00
2018-10-07T13:22:51.764Z,308.00
2018-10-07T13:23:51.774Z,348.00
2018-10-07T13:24:51.744Z,380.00
2018-10-07T13:25:51.733Z,380.00
2018-10-07T13:26:51.727Z,388.00
2018-10-07T13:27:51.708Z,416.00
2018-10-07T13:28:51.709Z,424.00
2018-10-07T13:29:51.686Z,468.00
2018-10-07T13:30:51.677Z,488.00
2018-10-07T13:31:51.663Z,468.00
2018-10-07T13:32:51.652Z,496.00
2018-10-07T13:33:51.652Z,484.00
2018-10-07T13:34:51.628Z,440.00
2018-10-07T13:35:51.621Z,420.00
2018-10-07T13:36:51.606Z,384.00
2018-10-07T13:37:51.595Z,336.00
2018-10-07T13:38:51.601Z,372.00
2018-10-07T13:39:51.635Z,392.00
2018-10-07T13:40:51.565Z,396.00
2018-10-07T13:41:51.556Z,456.00
2018-10-07T13:42:51.543Z,544.00
2018-10-07T13:43:51.543Z,532.00
2018-10-07T13:44:51.520Z,616.00
2018-10-07T13:45:51.509Z,600.00
2018-10-07T13:46:51.497Z,612.00
2018-10-07T13:47:51.486Z,652.00
2018-10-07T13:48:51.486Z,600.00
2018-10-07T13:49:51.463Z,628.00
2018-10-07T13:50:51.452Z,644.00
2018-10-07T13:51:51.443Z,600.00
2018-10-07T13:52:51.430Z,644.00
2018-10-07T13:53:51.440Z,612.00
2018-10-07T13:54:51.411Z,588.00
2018-10-07T13:55:51.400Z,588.00
2018-10-07T13:56:51.384Z,552.00
2018-10-07T13:57:51.378Z,540.00
2018-10-07T13:58:51.382Z,568.00
2018-10-07T13:59:51.353Z,568.00
2018-10-07T14:00:51.344Z,540.00
2018-10-07T14:01:51.336Z,532.00
2018-10-07T14:02:51.320Z,464.00
2018-10-07T14:03:51.344Z,452.00
2018-10-07T14:04:51.314Z,460.00
2018-10-07T14:05:51.286Z,428.00
2018-10-07T14:06:51.275Z,428.00
2018-10-07T14:07:51.269Z,392.00
2018-10-07T14:08:51.265Z,392.00
2018-10-07T14:09:51.243Z,384.00
2018-10-07T14:10:51.229Z,376.00
2018-10-07T14:11:51.222Z,352.00
2018-10-07T14:12:51.207Z,352.00
2018-10-07T14:13:51.207Z,356.00
2018-10-07T14:14:51.189Z,360.00
2018-10-07T14:15:51.178Z,356.00
2018-10-07T14:16:51.167Z,348.00
2018-10-07T14:17:51.159Z,332.00
2018-10-07T14:18:51.155Z,348.00
2018-10-07T14:19:51.132Z,368.00
2018-10-07T14:20:51.121Z,372.00
2018-10-07T14:21:51.130Z,344.00
2018-10-07T14:22:51.088Z,348.00
2018-10-07T14:23:51.148Z,340.00
2018-10-07T14:24:51.076Z,340.00
2018-10-07T14:25:51.067Z,340.00
2018-10-07T14:26:51.053Z,336.00
2018-10-07T14:27:51.041Z,348.00
2018-10-07T14:28:51.042Z,360.00
2018-10-07T14:29:51.019Z,348.00
2018-10-07T14:30:51.008Z,352.00
2018-10-07T14:31:50.997Z,336.00
2018-10-07T14:32:50.984Z,360.00
2018-10-07T14:33:50.986Z,332.00
2018-10-07T14:34:50.974Z,352.00
2018-10-07T14:35:50.956Z,320.00
2018-10-07T14:36:50.928Z,304.00
2018-10-07T14:37:50.937Z,292.00
2018-10-07T14:38:50.929Z,336.00
2018-10-07T14:39:50.910Z,304.00
2018-10-07T14:40:50.899Z,284.00
2018-10-07T14:41:50.887Z,308.00
2018-10-07T14:42:50.876Z,316.00
2018-10-07T14:43:50.917Z,320.00
2018-10-07T14:44:50.854Z,332.00
2018-10-07T14:45:50.899Z,324.00
2018-10-07T14:46:50.832Z,320.00
2018-10-07T14:47:50.820Z,316.00
2018-10-07T14:48:50.809Z,292.00
2018-10-07T14:49:50.814Z,284.00
2018-10-07T14:50:50.791Z,296.00
2018-10-07T14:51:50.775Z,296.00
2018-10-07T14:52:50.768Z,296.00
2018-10-07T14:53:50.757Z,288.00
2018-10-07T14:54:50.764Z,296.00
2018-10-07T14:55:50.736Z,288.00
2018-10-07T14:56:50.715Z,296.00
2018-10-07T14:57:50.704Z,328.00
2018-10-07T14:58:50.700Z,336.00
2018-10-07T14:59:50.701Z,312.00
2018-10-07T15:00:50.678Z,296.00
2018-10-07T15:01:50.670Z,284.00
2018-10-07T15:02:50.655Z,280.00
2018-10-07T15:03:50.642Z,392.00
2018-10-07T15:04:50.645Z,412.00
2018-10-07T15:05:50.621Z,424.00
2018-10-07T15:06:50.608Z,388.00
2018-10-07T15:07:50.597Z,348.00
2018-10-07T15:08:50.590Z,324.00
2018-10-07T15:09:50.591Z,284.00
2018-10-07T15:10:50.567Z,240.00
2018-10-07T15:11:50.560Z,244.00
2018-10-07T15:12:50.550Z,220.00
2018-10-07T15:13:50.533Z,220.00
2018-10-07T15:14:50.530Z,224.00
2018-10-07T15:15:50.513Z,240.00
2018-10-07T15:16:50.503Z,256.00
2018-10-07T15:17:50.488Z,256.00
2018-10-07T15:18:50.477Z,232.00
2018-10-07T15:19:50.481Z,220.00
2018-10-07T15:20:50.577Z,180.00
2018-10-07T15:21:50.443Z,180.00
2018-10-07T15:22:50.431Z,164.00
2018-10-07T15:23:50.549Z,176.00
2018-10-07T15:24:50.433Z,164.00
2018-10-07T15:25:50.397Z,148.00
2018-10-07T15:26:50.387Z,136.00
2018-10-07T15:27:50.379Z,140.00
2018-10-07T15:28:50.369Z,136.00
2018-10-07T15:29:50.431Z,136.00
2018-10-07T15:30:50.345Z,128.00
2018-10-07T15:31:50.335Z,136.00
2018-10-07T15:32:50.326Z,152.00
2018-10-07T15:33:50.311Z,164.00
2018-10-07T15:34:50.312Z,152.00
2018-10-07T15:35:50.295Z,152.00
2018-10-07T15:36:50.278Z,156.00
2018-10-07T15:37:50.266Z,156.00
2018-10-07T15:38:50.255Z,140.00
2018-10-07T15:39:50.261Z,144.00
2018-10-07T15:40:50.233Z,128.00
2018-10-07T15:41:50.210Z,120.00
2018-10-07T15:42:50.219Z,108.00
2018-10-07T15:43:50.199Z,104.00
2018-10-07T15:44:50.202Z,108.00
2018-10-07T15:45:50.177Z,116.00
2018-10-07T15:46:50.176Z,120.00
2018-10-07T15:47:50.158Z,104.00
2018-10-07T15:48:50.147Z,100.00
2018-10-07T15:49:50.147Z,100.00
2018-10-07T15:50:50.123Z,104.00
2018-10-07T15:51:50.113Z,96.00
2018-10-07T15:52:50.104Z,96.00
2018-10-07T15:53:50.103Z,96.00
2018-10-07T15:54:50.105Z,100.00